sensor_id;sensor_type;location;lat;lon;timestamp;pressure;altitude;pressure_sealevel;temperature;humidity
83444;BME280;73374;41.170;-96.156;2024-03-29T00:03:25;96957.28;;;20.24;27.43
83444;BME280;73374;41.170;-96.156;2024-03-29T00:08:26;96953.31;;;19.86;27.54
83444;BME280;73374;41.170;-96.156;2024-03-29T00:13:28;96955.81;;;19.58;27.83
83444;BME280;73374;41.170;-96.156;2024-03-29T00:18:31;96951.75;;;19.32;28.45
83444;BME280;73374;41.170;-96.156;2024-03-29T00:23:33;96944.78;;;19.08;28.74
83444;BME280;73374;41.170;-96.156;2024-03-29T00:28:35;96940.81;;;18.75;29.31
83444;BME280;73374;41.170;-96.156;2024-03-29T00:33:38;96943.97;;;18.47;29.79
83444;BME280;73374;41.170;-96.156;2024-03-29T00:38:39;96932.69;;;18.03;30.42
83444;BME280;73374;41.170;-96.156;2024-03-29T00:43:41;96942.47;;;17.78;31.02
83444;BME280;73374;41.170;-96.156;2024-03-29T00:48:44;96936.34;;;17.34;32.04
83444;BME280;73374;41.170;-96.156;2024-03-29T00:53:46;96937.84;;;17.24;32.33
83444;BME280;73374;41.170;-96.156;2024-03-29T00:58:48;96944.81;;;16.73;33.31
83444;BME280;73374;41.170;-96.156;2024-03-29T01:03:51;96943.53;;;16.31;34.35
83444;BME280;73374;41.170;-96.156;2024-03-29T01:08:52;96944.47;;;15.92;34.86
83444;BME280;73374;41.170;-96.156;2024-03-29T01:13:54;96943.28;;;15.81;35.07
83444;BME280;73374;41.170;-96.156;2024-03-29T01:18:58;96965.69;;;15.64;35.45
83444;BME280;73374;41.170;-96.156;2024-03-29T01:24:00;96966.63;;;15.43;35.82
83444;BME280;73374;41.170;-96.156;2024-03-29T01:29:02;96960.19;;;15.39;35.40
83444;BME280;73374;41.170;-96.156;2024-03-29T01:34:04;96968.00;;;15.06;35.82
83444;BME280;73374;41.170;-96.156;2024-03-29T01:39:32;96956.09;;;14.84;35.81
83444;BME280;73374;41.170;-96.156;2024-03-29T01:44:37;96957.09;;;14.76;36.40
83444;BME280;73374;41.170;-96.156;2024-03-29T01:49:41;96957.38;;;14.46;36.44
83444;BME280;73374;41.170;-96.156;2024-03-29T01:54:43;96963.63;;;14.52;36.56
83444;BME280;73374;41.170;-96.156;2024-03-29T01:59:46;96969.53;;;14.26;37.25
83444;BME280;73374;41.170;-96.156;2024-03-29T02:04:50;96974.50;;;14.21;37.20
83444;BME280;73374;41.170;-96.156;2024-03-29T02:09:51;96977.94;;;14.22;37.34
83444;BME280;73374;41.170;-96.156;2024-03-29T02:14:53;96973.94;;;14.26;37.12
83444;BME280;73374;41.170;-96.156;2024-03-29T02:19:56;96975.56;;;14.27;37.39
83444;BME280;73374;41.170;-96.156;2024-03-29T02:25:00;96953.91;;;14.05;37.96
83444;BME280;73374;41.170;-96.156;2024-03-29T02:30:01;96979.28;;;14.11;37.72
83444;BME280;73374;41.170;-96.156;2024-03-29T02:35:03;96974.16;;;13.90;38.27
83444;BME280;73374;41.170;-96.156;2024-03-29T02:40:08;96992.44;;;13.68;39.00
83444;BME280;73374;41.170;-96.156;2024-03-29T02:45:10;96988.56;;;13.57;39.15
83444;BME280;73374;41.170;-96.156;2024-03-29T02:50:13;97001.06;;;13.41;40.21
83444;BME280;73374;41.170;-96.156;2024-03-29T02:55:17;97003.97;;;13.52;38.99
83444;BME280;73374;41.170;-96.156;2024-03-29T03:00:18;96997.22;;;13.37;39.95
83444;BME280;73374;41.170;-96.156;2024-03-29T03:05:20;97009.94;;;13.04;40.78
83444;BME280;73374;41.170;-96.156;2024-03-29T03:10:23;97009.63;;;12.77;41.06
83444;BME280;73374;41.170;-96.156;2024-03-29T03:15:25;97013.63;;;12.58;41.54
83444;BME280;73374;41.170;-96.156;2024-03-29T03:20:27;97028.44;;;12.43;42.29
83444;BME280;73374;41.170;-96.156;2024-03-29T03:25:30;97032.84;;;12.43;42.11
83444;BME280;73374;41.170;-96.156;2024-03-29T03:30:31;97041.38;;;12.22;42.68
83444;BME280;73374;41.170;-96.156;2024-03-29T03:35:33;97046.66;;;12.14;43.44
83444;BME280;73374;41.170;-96.156;2024-03-29T03:40:36;97044.88;;;11.99;43.52
83444;BME280;73374;41.170;-96.156;2024-03-29T03:45:39;97034.88;;;11.88;44.16
83444;BME280;73374;41.170;-96.156;2024-03-29T03:50:40;97035.00;;;11.72;44.39
83444;BME280;73374;41.170;-96.156;2024-03-29T03:55:43;97028.94;;;11.57;44.14
83444;BME280;73374;41.170;-96.156;2024-03-29T04:00:45;97026.09;;;11.43;45.95
83444;BME280;73374;41.170;-96.156;2024-03-29T04:05:47;97018.19;;;11.37;46.67
83444;BME280;73374;41.170;-96.156;2024-03-29T04:10:50;97012.53;;;11.33;46.28
83444;BME280;73374;41.170;-96.156;2024-03-29T04:15:51;97014.22;;;11.26;46.40
83444;BME280;73374;41.170;-96.156;2024-03-29T04:20:56;97007.69;;;11.30;45.89
83444;BME280;73374;41.170;-96.156;2024-03-29T04:26:00;97005.28;;;11.29;46.41
83444;BME280;73374;41.170;-96.156;2024-03-29T04:31:02;97008.38;;;11.24;47.70
83444;BME280;73374;41.170;-96.156;2024-03-29T04:36:04;96998.31;;;11.21;46.94
83444;BME280;73374;41.170;-96.156;2024-03-29T04:41:07;97004.97;;;11.24;47.76
83444;BME280;73374;41.170;-96.156;2024-03-29T04:46:10;97008.38;;;11.24;47.12
83444;BME280;73374;41.170;-96.156;2024-03-29T04:51:12;97007.47;;;11.17;48.39
83444;BME280;73374;41.170;-96.156;2024-03-29T04:56:16;97014.44;;;11.16;47.98
83444;BME280;73374;41.170;-96.156;2024-03-29T05:01:18;97002.19;;;11.02;48.64
83444;BME280;73374;41.170;-96.156;2024-03-29T05:06:20;97001.16;;;11.11;48.81
83444;BME280;73374;41.170;-96.156;2024-03-29T05:11:24;97006.47;;;11.18;48.86
83444;BME280;73374;41.170;-96.156;2024-03-29T05:16:26;96991.22;;;11.38;48.09
83444;BME280;73374;41.170;-96.156;2024-03-29T05:21:28;96992.41;;;11.27;48.56
83444;BME280;73374;41.170;-96.156;2024-03-29T05:26:31;96991.84;;;11.17;49.67
83444;BME280;73374;41.170;-96.156;2024-03-29T05:31:33;96988.97;;;11.35;49.12
83444;BME280;73374;41.170;-96.156;2024-03-29T05:36:35;96981.97;;;11.35;48.91
83444;BME280;73374;41.170;-96.156;2024-03-29T05:41:39;96981.50;;;11.32;49.08
83444;BME280;73374;41.170;-96.156;2024-03-29T05:46:40;96978.84;;;11.17;50.05
83444;BME280;73374;41.170;-96.156;2024-03-29T05:51:42;96968.22;;;11.04;50.66
83444;BME280;73374;41.170;-96.156;2024-03-29T05:56:46;96970.28;;;11.08;50.62
83444;BME280;73374;41.170;-96.156;2024-03-29T06:01:48;96964.53;;;10.98;50.50
83444;BME280;73374;41.170;-96.156;2024-03-29T06:06:50;96961.56;;;11.01;50.71
83444;BME280;73374;41.170;-96.156;2024-03-29T06:11:55;96966.47;;;11.19;50.31
83444;BME280;73374;41.170;-96.156;2024-03-29T06:16:57;96961.06;;;11.29;49.12
83444;BME280;73374;41.170;-96.156;2024-03-29T06:21:58;96942.56;;;11.24;49.04
83444;BME280;73374;41.170;-96.156;2024-03-29T06:27:02;96953.56;;;11.11;49.98
83444;BME280;73374;41.170;-96.156;2024-03-29T06:32:04;96956.34;;;11.24;49.97
83444;BME280;73374;41.170;-96.156;2024-03-29T06:37:06;96944.53;;;11.22;50.07
83444;BME280;73374;41.170;-96.156;2024-03-29T06:42:10;96952.03;;;11.16;49.80
83444;BME280;73374;41.170;-96.156;2024-03-29T06:47:12;96945.69;;;11.19;50.63
83444;BME280;73374;41.170;-96.156;2024-03-29T06:52:14;96947.25;;;11.05;50.30
83444;BME280;73374;41.170;-96.156;2024-03-29T06:57:17;96944.13;;;11.10;50.08
83444;BME280;73374;41.170;-96.156;2024-03-29T07:02:19;96940.38;;;11.12;50.86
83444;BME280;73374;41.170;-96.156;2024-03-29T07:07:21;96940.84;;;11.16;49.97
83444;BME280;73374;41.170;-96.156;2024-03-29T07:12:24;96936.09;;;11.20;50.05
83444;BME280;73374;41.170;-96.156;2024-03-29T07:17:26;96920.16;;;11.00;50.95
83444;BME280;73374;41.170;-96.156;2024-03-29T07:22:28;96916.41;;;11.02;50.92
83444;BME280;73374;41.170;-96.156;2024-03-29T07:27:32;96907.50;;;10.74;51.93
83444;BME280;73374;41.170;-96.156;2024-03-29T07:32:34;96897.88;;;10.82;51.16
83444;BME280;73374;41.170;-96.156;2024-03-29T07:37:36;96889.84;;;10.69;51.58
83444;BME280;73374;41.170;-96.156;2024-03-29T07:42:39;96884.56;;;10.54;52.85
83444;BME280;73374;41.170;-96.156;2024-03-29T07:47:41;96868.53;;;10.51;52.53
83444;BME280;73374;41.170;-96.156;2024-03-29T07:52:45;96864.88;;;10.37;52.83
83444;BME280;73374;41.170;-96.156;2024-03-29T07:57:48;96862.28;;;10.37;52.61
83444;BME280;73374;41.170;-96.156;2024-03-29T08:02:50;96859.28;;;10.17;52.89
83444;BME280;73374;41.170;-96.156;2024-03-29T08:07:51;96852.38;;;10.10;53.25
83444;BME280;73374;41.170;-96.156;2024-03-29T08:13:09;96856.50;;;9.88;54.86
83444;BME280;73374;41.170;-96.156;2024-03-29T08:18:11;96852.03;;;9.74;54.64
83444;BME280;73374;41.170;-96.156;2024-03-29T08:23:13;96847.84;;;9.64;54.68
83444;BME280;73374;41.170;-96.156;2024-03-29T08:28:16;96839.81;;;9.43;54.91
83444;BME280;73374;41.170;-96.156;2024-03-29T08:33:17;96832.38;;;9.32;55.74
83444;BME280;73374;41.170;-96.156;2024-03-29T08:38:19;96831.97;;;9.59;55.22
83444;BME280;73374;41.170;-96.156;2024-03-29T08:43:24;96838.34;;;9.49;55.04
83444;BME280;73374;41.170;-96.156;2024-03-29T08:48:27;96830.09;;;9.45;55.44
83444;BME280;73374;41.170;-96.156;2024-03-29T08:53:29;96827.38;;;9.30;56.21
83444;BME280;73374;41.170;-96.156;2024-03-29T08:58:32;96825.06;;;9.35;55.93
83444;BME280;73374;41.170;-96.156;2024-03-29T09:03:34;96820.66;;;9.52;56.21
83444;BME280;73374;41.170;-96.156;2024-03-29T09:08:35;96813.25;;;9.41;56.00
83444;BME280;73374;41.170;-96.156;2024-03-29T09:13:38;96819.06;;;9.43;55.97
83444;BME280;73374;41.170;-96.156;2024-03-29T09:18:40;96800.75;;;9.45;55.87
83444;BME280;73374;41.170;-96.156;2024-03-29T09:23:42;96795.88;;;9.50;56.42
83444;BME280;73374;41.170;-96.156;2024-03-29T09:28:45;96787.31;;;9.41;57.36
83444;BME280;73374;41.170;-96.156;2024-03-29T09:33:47;96789.38;;;9.06;57.56
83444;BME280;73374;41.170;-96.156;2024-03-29T09:38:49;96785.00;;;8.83;58.44
83444;BME280;73374;41.170;-96.156;2024-03-29T09:43:53;96774.69;;;8.50;59.71
83444;BME280;73374;41.170;-96.156;2024-03-29T09:48:55;96794.09;;;8.46;59.88
83444;BME280;73374;41.170;-96.156;2024-03-29T09:53:57;96783.59;;;8.39;61.01
83444;BME280;73374;41.170;-96.156;2024-03-29T09:59:02;96769.19;;;8.37;60.94
83444;BME280;73374;41.170;-96.156;2024-03-29T10:04:07;96752.06;;;8.36;61.45
83444;BME280;73374;41.170;-96.156;2024-03-29T10:09:09;96739.22;;;8.26;62.38
83444;BME280;73374;41.170;-96.156;2024-03-29T10:14:13;96727.88;;;7.86;62.70
83444;BME280;73374;41.170;-96.156;2024-03-29T10:19:16;96728.53;;;7.89;62.70
83444;BME280;73374;41.170;-96.156;2024-03-29T10:24:19;96725.91;;;7.80;63.16
83444;BME280;73374;41.170;-96.156;2024-03-29T10:29:27;96721.56;;;7.65;63.61
83444;BME280;73374;41.170;-96.156;2024-03-29T10:34:29;96715.22;;;7.51;64.04
83444;BME280;73374;41.170;-96.156;2024-03-29T10:39:31;96706.75;;;7.41;64.74
83444;BME280;73374;41.170;-96.156;2024-03-29T10:44:35;96693.78;;;7.24;65.00
83444;BME280;73374;41.170;-96.156;2024-03-29T10:49:38;96696.38;;;7.24;65.67
83444;BME280;73374;41.170;-96.156;2024-03-29T10:54:42;96692.47;;;7.12;65.25
83444;BME280;73374;41.170;-96.156;2024-03-29T10:59:49;96683.88;;;7.04;64.71
83444;BME280;73374;41.170;-96.156;2024-03-29T11:04:57;96684.34;;;6.99;66.20
83444;BME280;73374;41.170;-96.156;2024-03-29T11:10:02;96668.88;;;7.07;66.04
83444;BME280;73374;41.170;-96.156;2024-03-29T11:15:15;96655.78;;;7.01;65.72
83444;BME280;73374;41.170;-96.156;2024-03-29T11:20:18;96662.22;;;6.97;66.15
83444;BME280;73374;41.170;-96.156;2024-03-29T11:25:20;96656.53;;;6.85;66.62
83444;BME280;73374;41.170;-96.156;2024-03-29T11:30:23;96665.16;;;6.68;68.06
83444;BME280;73374;41.170;-96.156;2024-03-29T11:35:26;96659.44;;;6.56;67.06
83444;BME280;73374;41.170;-96.156;2024-03-29T11:40:30;96653.50;;;6.29;68.40
83444;BME280;73374;41.170;-96.156;2024-03-29T11:45:33;96638.75;;;6.22;67.84
83444;BME280;73374;41.170;-96.156;2024-03-29T11:50:35;96631.03;;;6.22;66.25
83444;BME280;73374;41.170;-96.156;2024-03-29T11:55:37;96625.50;;;6.17;67.99
83444;BME280;73374;41.170;-96.156;2024-03-29T12:00:40;96618.59;;;6.17;70.16
83444;BME280;73374;41.170;-96.156;2024-03-29T12:05:42;96624.84;;;6.41;70.43
83444;BME280;73374;41.170;-96.156;2024-03-29T12:10:44;96623.59;;;6.45;70.92
83444;BME280;73374;41.170;-96.156;2024-03-29T12:15:47;96620.78;;;6.64;70.96
83444;BME280;73374;41.170;-96.156;2024-03-29T12:20:49;96617.72;;;6.60;70.13
83444;BME280;73374;41.170;-96.156;2024-03-29T12:25:53;96617.47;;;6.88;70.93
83444;BME280;73374;41.170;-96.156;2024-03-29T12:30:57;96602.19;;;7.11;70.56
83444;BME280;73374;41.170;-96.156;2024-03-29T12:35:58;96585.50;;;7.47;69.66
83444;BME280;73374;41.170;-96.156;2024-03-29T12:41:00;96583.03;;;7.78;69.19
83444;BME280;73374;41.170;-96.156;2024-03-29T12:46:04;96586.88;;;8.15;68.48
83444;BME280;73374;41.170;-96.156;2024-03-29T12:51:07;96592.38;;;8.36;67.80
83444;BME280;73374;41.170;-96.156;2024-03-29T12:56:09;96581.13;;;8.60;67.08
83444;BME280;73374;41.170;-96.156;2024-03-29T13:01:12;96581.44;;;8.96;66.55
83444;BME280;73374;41.170;-96.156;2024-03-29T13:06:14;96551.06;;;9.13;66.08
83444;BME280;73374;41.170;-96.156;2024-03-29T13:11:16;96547.78;;;9.19;66.24
83444;BME280;73374;41.170;-96.156;2024-03-29T13:16:19;96532.47;;;9.10;65.84
83444;BME280;73374;41.170;-96.156;2024-03-29T13:21:21;96533.34;;;9.25;64.59
83444;BME280;73374;41.170;-96.156;2024-03-29T13:26:22;96520.72;;;9.45;65.76
83444;BME280;73374;41.170;-96.156;2024-03-29T13:31:25;96507.19;;;9.72;65.28
83444;BME280;73374;41.170;-96.156;2024-03-29T13:36:27;96502.59;;;10.26;64.01
83444;BME280;73374;41.170;-96.156;2024-03-29T13:41:29;96498.63;;;10.60;63.15
83444;BME280;73374;41.170;-96.156;2024-03-29T13:46:32;96518.09;;;10.85;63.52
83444;BME280;73374;41.170;-96.156;2024-03-29T13:51:34;96498.34;;;11.55;61.86
83444;BME280;73374;41.170;-96.156;2024-03-29T13:56:35;96487.03;;;11.41;61.73
83444;BME280;73374;41.170;-96.156;2024-03-29T14:01:39;96485.91;;;11.51;62.49
83444;BME280;73374;41.170;-96.156;2024-03-29T14:06:40;96476.88;;;11.74;61.50
83444;BME280;73374;41.170;-96.156;2024-03-29T14:11:43;96465.56;;;12.17;61.36
83444;BME280;73374;41.170;-96.156;2024-03-29T14:16:46;96466.38;;;12.17;60.86
83444;BME280;73374;41.170;-96.156;2024-03-29T14:21:48;96444.72;;;12.17;60.58
83444;BME280;73374;41.170;-96.156;2024-03-29T14:26:49;96446.03;;;12.47;60.97
83444;BME280;73374;41.170;-96.156;2024-03-29T14:31:53;96441.34;;;12.29;60.96
83444;BME280;73374;41.170;-96.156;2024-03-29T14:36:54;96436.00;;;12.37;61.12
83444;BME280;73374;41.170;-96.156;2024-03-29T14:41:56;96436.94;;;12.30;61.49
83444;BME280;73374;41.170;-96.156;2024-03-29T14:46:59;96423.63;;;12.66;61.07
83444;BME280;73374;41.170;-96.156;2024-03-29T14:52:01;96418.66;;;12.78;61.13
83444;BME280;73374;41.170;-96.156;2024-03-29T14:57:03;96419.84;;;12.82;60.96
83444;BME280;73374;41.170;-96.156;2024-03-29T15:02:05;96418.44;;;12.73;60.97
83444;BME280;73374;41.170;-96.156;2024-03-29T15:07:07;96418.09;;;13.02;60.56
83444;BME280;73374;41.170;-96.156;2024-03-29T15:12:09;96427.38;;;13.24;60.29
83444;BME280;73374;41.170;-96.156;2024-03-29T15:17:12;96419.53;;;13.44;59.69
83444;BME280;73374;41.170;-96.156;2024-03-29T15:22:14;96421.72;;;13.67;59.20
83444;BME280;73374;41.170;-96.156;2024-03-29T15:27:15;96408.66;;;13.67;59.11
83444;BME280;73374;41.170;-96.156;2024-03-29T15:32:19;96401.75;;;13.99;57.58
83444;BME280;73374;41.170;-96.156;2024-03-29T15:37:20;96412.59;;;14.09;57.44
83444;BME280;73374;41.170;-96.156;2024-03-29T15:42:22;96421.34;;;14.22;57.35
83444;BME280;73374;41.170;-96.156;2024-03-29T15:47:25;96400.63;;;13.75;58.40
83444;BME280;73374;41.170;-96.156;2024-03-29T15:52:27;96404.81;;;14.47;57.17
83444;BME280;73374;41.170;-96.156;2024-03-29T15:57:29;96404.81;;;14.47;57.40
83444;BME280;73374;41.170;-96.156;2024-03-29T16:02:38;96413.66;;;14.46;57.00
83444;BME280;73374;41.170;-96.156;2024-03-29T16:07:47;96412.53;;;14.67;56.91
83444;BME280;73374;41.170;-96.156;2024-03-29T16:12:48;96417.94;;;14.21;57.73
83444;BME280;73374;41.170;-96.156;2024-03-29T16:17:52;96411.25;;;14.38;56.94
83444;BME280;73374;41.170;-96.156;2024-03-29T16:22:53;96419.38;;;15.00;55.95
83444;BME280;73374;41.170;-96.156;2024-03-29T16:27:55;96388.97;;;14.74;56.31
83444;BME280;73374;41.170;-96.156;2024-03-29T16:32:58;96374.75;;;15.20;55.80
83444;BME280;73374;41.170;-96.156;2024-03-29T16:38:00;96381.00;;;15.19;54.93
83444;BME280;73374;41.170;-96.156;2024-03-29T16:43:02;96381.88;;;15.62;54.40
83444;BME280;73374;41.170;-96.156;2024-03-29T16:48:05;96379.03;;;15.57;54.20
83444;BME280;73374;41.170;-96.156;2024-03-29T16:53:07;96371.75;;;16.69;51.92
83444;BME280;73374;41.170;-96.156;2024-03-29T16:58:08;96378.25;;;16.30;52.05
83444;BME280;73374;41.170;-96.156;2024-03-29T17:03:11;96363.72;;;17.06;51.42
83444;BME280;73374;41.170;-96.156;2024-03-29T17:08:13;96369.63;;;16.90;51.02
83444;BME280;73374;41.170;-96.156;2024-03-29T17:13:15;96360.88;;;16.47;51.45
83444;BME280;73374;41.170;-96.156;2024-03-29T17:18:18;96360.84;;;16.84;50.70
83444;BME280;73374;41.170;-96.156;2024-03-29T17:23:19;96349.69;;;17.35;50.51
83444;BME280;73374;41.170;-96.156;2024-03-29T17:28:21;96362.63;;;16.72;51.18
83444;BME280;73374;41.170;-96.156;2024-03-29T17:33:24;96345.13;;;17.42;50.06
83444;BME280;73374;41.170;-96.156;2024-03-29T17:38:26;96344.78;;;17.27;50.65
83444;BME280;73374;41.170;-96.156;2024-03-29T17:43:28;96342.56;;;16.89;50.51
83444;BME280;73374;41.170;-96.156;2024-03-29T17:48:31;96338.41;;;17.23;50.47
83444;BME280;73374;41.170;-96.156;2024-03-29T17:53:32;96343.72;;;17.87;49.78
83444;BME280;73374;41.170;-96.156;2024-03-29T17:58:34;96325.88;;;18.00;48.68
83444;BME280;73374;41.170;-96.156;2024-03-29T18:03:37;96322.94;;;17.85;49.38
83444;BME280;73374;41.170;-96.156;2024-03-29T18:08:39;96306.72;;;18.17;47.07
83444;BME280;73374;41.170;-96.156;2024-03-29T18:13:41;96322.88;;;18.65;46.48
83444;BME280;73374;41.170;-96.156;2024-03-29T18:18:45;96319.00;;;19.02;46.01
83444;BME280;73374;41.170;-96.156;2024-03-29T18:23:47;96309.78;;;19.76;44.73
83444;BME280;73374;41.170;-96.156;2024-03-29T18:28:49;96312.78;;;17.77;46.58
83444;BME280;73374;41.170;-96.156;2024-03-29T18:33:52;96297.94;;;20.23;44.46
83444;BME280;73374;41.170;-96.156;2024-03-29T18:38:54;96287.41;;;22.08;42.94
83444;BME280;73374;41.170;-96.156;2024-03-29T18:43:55;96286.47;;;20.34;42.80
83444;BME280;73374;41.170;-96.156;2024-03-29T18:48:58;96268.84;;;21.46;41.80
83444;BME280;73374;41.170;-96.156;2024-03-29T18:54:00;96249.91;;;23.13;39.52
83444;BME280;73374;41.170;-96.156;2024-03-29T18:59:02;96261.22;;;20.16;42.73
83444;BME280;73374;41.170;-96.156;2024-03-29T19:04:05;96261.13;;;21.91;40.65
83444;BME280;73374;41.170;-96.156;2024-03-29T19:09:07;96249.22;;;21.31;42.03
83444;BME280;73374;41.170;-96.156;2024-03-29T19:14:08;96256.00;;;20.80;42.01
83444;BME280;73374;41.170;-96.156;2024-03-29T19:19:11;96253.72;;;21.93;39.04
83444;BME280;73374;41.170;-96.156;2024-03-29T19:24:13;96228.81;;;23.67;37.06
83444;BME280;73374;41.170;-96.156;2024-03-29T19:29:15;96240.03;;;24.03;36.80
83444;BME280;73374;41.170;-96.156;2024-03-29T19:34:18;96237.16;;;24.44;36.49
83444;BME280;73374;41.170;-96.156;2024-03-29T19:39:20;96214.94;;;22.85;37.98
83444;BME280;73374;41.170;-96.156;2024-03-29T19:44:21;96223.81;;;23.51;36.74
83444;BME280;73374;41.170;-96.156;2024-03-29T19:49:25;96218.03;;;21.96;38.07
83444;BME280;73374;41.170;-96.156;2024-03-29T19:54:26;96208.06;;;22.23;37.91
83444;BME280;73374;41.170;-96.156;2024-03-29T19:59:29;96203.03;;;22.88;36.52
83444;BME280;73374;41.170;-96.156;2024-03-29T20:04:32;96190.69;;;24.76;34.25
83444;BME280;73374;41.170;-96.156;2024-03-29T20:09:35;96180.47;;;25.17;33.36
83444;BME280;73374;41.170;-96.156;2024-03-29T20:14:37;96179.41;;;23.07;36.45
83444;BME280;73374;41.170;-96.156;2024-03-29T20:19:40;96190.81;;;23.82;34.87
83444;BME280;73374;41.170;-96.156;2024-03-29T20:24:42;96178.22;;;23.49;35.77
83444;BME280;73374;41.170;-96.156;2024-03-29T20:29:43;96187.88;;;23.14;34.94
83444;BME280;73374;41.170;-96.156;2024-03-29T20:34:47;96185.03;;;22.44;36.42
83444;BME280;73374;41.170;-96.156;2024-03-29T20:39:48;96178.38;;;22.98;36.18
83444;BME280;73374;41.170;-96.156;2024-03-29T20:44:50;96174.56;;;23.24;34.54
83444;BME280;73374;41.170;-96.156;2024-03-29T20:49:53;96170.38;;;23.18;34.95
83444;BME280;73374;41.170;-96.156;2024-03-29T20:54:55;96164.16;;;25.23;35.96
83444;BME280;73374;41.170;-96.156;2024-03-29T20:59:57;96178.53;;;23.91;35.52
83444;BME280;73374;41.170;-96.156;2024-03-29T21:05:00;96161.53;;;24.94;34.69
83444;BME280;73374;41.170;-96.156;2024-03-29T21:10:02;96151.34;;;25.73;32.54
83444;BME280;73374;41.170;-96.156;2024-03-29T21:15:04;96157.63;;;24.58;34.35
83444;BME280;73374;41.170;-96.156;2024-03-29T21:20:09;96154.75;;;24.83;32.85
83444;BME280;73374;41.170;-96.156;2024-03-29T21:25:12;96147.84;;;25.30;32.72
83444;BME280;73374;41.170;-96.156;2024-03-29T21:30:14;96145.94;;;25.36;33.10
83444;BME280;73374;41.170;-96.156;2024-03-29T21:35:17;96145.94;;;25.78;34.20
83444;BME280;73374;41.170;-96.156;2024-03-29T21:40:19;96151.41;;;26.06;32.88
83444;BME280;73374;41.170;-96.156;2024-03-29T21:45:21;96141.81;;;26.42;31.56
83444;BME280;73374;41.170;-96.156;2024-03-29T21:50:24;96153.06;;;24.63;33.99
83444;BME280;73374;41.170;-96.156;2024-03-29T21:55:26;96153.22;;;24.48;33.93
83444;BME280;73374;41.170;-96.156;2024-03-29T22:00:27;96158.19;;;23.07;35.73
83444;BME280;73374;41.170;-96.156;2024-03-29T22:05:30;96158.38;;;23.95;35.80
83444;BME280;73374;41.170;-96.156;2024-03-29T22:10:32;96158.03;;;24.02;36.17
83444;BME280;73374;41.170;-96.156;2024-03-29T22:15:34;96153.78;;;23.57;35.91
83444;BME280;73374;41.170;-96.156;2024-03-29T22:20:37;96150.63;;;24.38;35.07
83444;BME280;73374;41.170;-96.156;2024-03-29T22:25:38;96151.25;;;24.30;35.47
83444;BME280;73374;41.170;-96.156;2024-03-29T22:30:43;96160.53;;;24.22;36.40
83444;BME280;73374;41.170;-96.156;2024-03-29T22:35:47;96162.47;;;24.17;37.69
83444;BME280;73374;41.170;-96.156;2024-03-29T22:40:48;96161.72;;;23.67;35.41
83444;BME280;73374;41.170;-96.156;2024-03-29T22:45:50;96172.03;;;22.68;38.11
83444;BME280;73374;41.170;-96.156;2024-03-29T22:50:53;96188.44;;;22.80;39.05
83444;BME280;73374;41.170;-96.156;2024-03-29T22:55:55;96182.13;;;22.41;38.06
83444;BME280;73374;41.170;-96.156;2024-03-29T23:00:57;96188.47;;;22.40;38.94
83444;BME280;73374;41.170;-96.156;2024-03-29T23:06:00;96183.69;;;22.47;38.22
83444;BME280;73374;41.170;-96.156;2024-03-29T23:11:02;96184.69;;;21.90;39.16
83444;BME280;73374;41.170;-96.156;2024-03-29T23:16:04;96192.72;;;22.41;39.40
83444;BME280;73374;41.170;-96.156;2024-03-29T23:21:08;96210.16;;;21.39;40.40
83444;BME280;73374;41.170;-96.156;2024-03-29T23:26:10;96219.91;;;20.54;41.38
83444;BME280;73374;41.170;-96.156;2024-03-29T23:31:11;96218.69;;;20.66;40.75
83444;BME280;73374;41.170;-96.156;2024-03-29T23:36:14;96223.28;;;20.22;41.47
83444;BME280;73374;41.170;-96.156;2024-03-29T23:41:16;96231.88;;;19.85;43.02
83444;BME280;73374;41.170;-96.156;2024-03-29T23:46:18;96240.28;;;19.82;43.28
83444;BME280;73374;41.170;-96.156;2024-03-29T23:51:21;96237.16;;;19.25;43.90
83444;BME280;73374;41.170;-96.156;2024-03-29T23:56:23;96255.31;;;19.05;44.21
